sensor_id;sensor_type;location;lat;lon;timestamp;temperature;humidity
60723;DHT22;46574;52.818;6.516;2022-09-03T00:00:00;17.90;60.40
60723;DHT22;46574;52.818;6.516;2022-09-03T00:02:52;17.80;60.50
60723;DHT22;46574;52.818;6.516;2022-09-03T00:05:22;17.80;60.40
60723;DHT22;46574;52.818;6.516;2022-09-03T00:08:10;17.80;60.50
60723;DHT22;46574;52.818;6.516;2022-09-03T00:10:56;17.80;60.60
60723;DHT22;46574;52.818;6.516;2022-09-03T00:13:34;17.70;60.50
60723;DHT22;46574;52.818;6.516;2022-09-03T00:16:05;17.70;60.60
60723;DHT22;46574;52.818;6.516;2022-09-03T00:18:40;17.70;60.70
60723;DHT22;46574;52.818;6.516;2022-09-03T00:21:23;17.70;60.60
60723;DHT22;46574;52.818;6.516;2022-09-03T00:23:51;17.60;60.70
60723;DHT22;46574;52.818;6.516;2022-09-03T00:26:24;17.60;60.50
60723;DHT22;46574;52.818;6.516;2022-09-03T00:29:22;17.60;60.50
60723;DHT22;46574;52.818;6.516;2022-09-03T00:32:03;17.60;61.30
60723;DHT22;46574;52.818;6.516;2022-09-03T00:34:37;17.60;61.00
60723;DHT22;46574;52.818;6.516;2022-09-03T00:37:09;17.50;60.80
60723;DHT22;46574;52.818;6.516;2022-09-03T00:39:36;17.50;60.90
60723;DHT22;46574;52.818;6.516;2022-09-03T00:45:17;17.50;61.20
60723;DHT22;46574;52.818;6.516;2022-09-03T00:47:57;17.40;61.10
60723;DHT22;46574;52.818;6.516;2022-09-03T00:53:40;17.40;61.40
60723;DHT22;46574;52.818;6.516;2022-09-03T01:04:36;17.30;62.30
60723;DHT22;46574;52.818;6.516;2022-09-03T01:07:29;17.20;62.20
60723;DHT22;46574;52.818;6.516;2022-09-03T01:13:45;17.20;62.30
60723;DHT22;46574;52.818;6.516;2022-09-03T01:16:12;17.10;62.40
60723;DHT22;46574;52.818;6.516;2022-09-03T01:19:12;17.10;62.50
60723;DHT22;46574;52.818;6.516;2022-09-03T01:27:21;17.00;63.00
60723;DHT22;46574;52.818;6.516;2022-09-03T01:29:53;16.90;63.00
60723;DHT22;46574;52.818;6.516;2022-09-03T01:32:56;16.90;63.10
60723;DHT22;46574;52.818;6.516;2022-09-03T01:35:57;16.90;63.20
60723;DHT22;46574;52.818;6.516;2022-09-03T01:39:11;16.90;63.50
60723;DHT22;46574;52.818;6.516;2022-09-03T01:41:21;16.90;63.50
60723;DHT22;46574;52.818;6.516;2022-09-03T01:44:29;16.90;63.50
60723;DHT22;46574;52.818;6.516;2022-09-03T01:47:21;16.80;63.60
60723;DHT22;46574;52.818;6.516;2022-09-03T01:50:15;16.90;63.70
60723;DHT22;46574;52.818;6.516;2022-09-03T01:53:18;16.80;63.80
60723;DHT22;46574;52.818;6.516;2022-09-03T01:55:59;16.80;64.10
60723;DHT22;46574;52.818;6.516;2022-09-03T01:58:40;16.80;64.10
60723;DHT22;46574;52.818;6.516;2022-09-03T02:01:28;16.80;64.20
60723;DHT22;46574;52.818;6.516;2022-09-03T02:03:55;16.90;64.00
60723;DHT22;46574;52.818;6.516;2022-09-03T02:06:25;16.80;64.20
60723;DHT22;46574;52.818;6.516;2022-09-03T02:08:52;16.80;64.30
60723;DHT22;46574;52.818;6.516;2022-09-03T02:11:18;16.80;64.60
60723;DHT22;46574;52.818;6.516;2022-09-03T02:13:50;16.80;64.60
60723;DHT22;46574;52.818;6.516;2022-09-03T02:16:19;16.90;64.80
60723;DHT22;46574;52.818;6.516;2022-09-03T02:18:50;16.90;64.80
60723;DHT22;46574;52.818;6.516;2022-09-03T02:21:20;16.90;64.90
60723;DHT22;46574;52.818;6.516;2022-09-03T02:23:47;16.90;65.10
60723;DHT22;46574;52.818;6.516;2022-09-03T02:26:17;16.90;64.90
60723;DHT22;46574;52.818;6.516;2022-09-03T02:28:44;16.90;64.90
60723;DHT22;46574;52.818;6.516;2022-09-03T02:31:10;16.90;64.60
60723;DHT22;46574;52.818;6.516;2022-09-03T02:33:38;17.00;64.60
60723;DHT22;46574;52.818;6.516;2022-09-03T02:36:07;17.00;64.60
60723;DHT22;46574;52.818;6.516;2022-09-03T02:38:33;17.00;64.70
60723;DHT22;46574;52.818;6.516;2022-09-03T02:40:59;17.00;64.70
60723;DHT22;46574;52.818;6.516;2022-09-03T02:43:44;17.00;64.70
60723;DHT22;46574;52.818;6.516;2022-09-03T02:46:17;17.10;64.50
60723;DHT22;46574;52.818;6.516;2022-09-03T02:48:44;17.10;64.50
60723;DHT22;46574;52.818;6.516;2022-09-03T02:51:10;17.00;64.50
60723;DHT22;46574;52.818;6.516;2022-09-03T02:53:35;17.10;64.50
60723;DHT22;46574;52.818;6.516;2022-09-03T02:56:01;17.10;64.50
60723;DHT22;46574;52.818;6.516;2022-09-03T02:58:27;17.10;64.40
60723;DHT22;46574;52.818;6.516;2022-09-03T03:00:53;17.10;64.50
60723;DHT22;46574;52.818;6.516;2022-09-03T03:03:19;17.10;64.50
60723;DHT22;46574;52.818;6.516;2022-09-03T03:05:50;17.20;64.20
60723;DHT22;46574;52.818;6.516;2022-09-03T03:08:17;17.20;64.20
60723;DHT22;46574;52.818;6.516;2022-09-03T03:10:46;17.20;64.20
60723;DHT22;46574;52.818;6.516;2022-09-03T03:13:13;17.20;64.20
60723;DHT22;46574;52.818;6.516;2022-09-03T03:15:39;17.20;64.10
60723;DHT22;46574;52.818;6.516;2022-09-03T03:18:05;17.20;63.80
60723;DHT22;46574;52.818;6.516;2022-09-03T03:20:32;17.10;63.80
60723;DHT22;46574;52.818;6.516;2022-09-03T03:23:00;17.20;63.90
60723;DHT22;46574;52.818;6.516;2022-09-03T03:25:26;17.10;63.90
60723;DHT22;46574;52.818;6.516;2022-09-03T03:27:54;17.10;63.90
60723;DHT22;46574;52.818;6.516;2022-09-03T03:30:21;17.10;63.90
60723;DHT22;46574;52.818;6.516;2022-09-03T03:32:47;17.10;64.00
60723;DHT22;46574;52.818;6.516;2022-09-03T03:35:13;17.10;64.00
60723;DHT22;46574;52.818;6.516;2022-09-03T03:37:39;17.10;64.10
60723;DHT22;46574;52.818;6.516;2022-09-03T03:40:05;17.00;64.20
60723;DHT22;46574;52.818;6.516;2022-09-03T03:42:35;17.00;64.10
60723;DHT22;46574;52.818;6.516;2022-09-03T03:45:01;17.00;64.10
60723;DHT22;46574;52.818;6.516;2022-09-03T03:47:30;17.00;64.30
60723;DHT22;46574;52.818;6.516;2022-09-03T03:49:57;17.00;64.30
60723;DHT22;46574;52.818;6.516;2022-09-03T03:52:23;17.00;64.40
60723;DHT22;46574;52.818;6.516;2022-09-03T03:54:50;17.00;64.60
60723;DHT22;46574;52.818;6.516;2022-09-03T03:57:16;17.00;64.70
60723;DHT22;46574;52.818;6.516;2022-09-03T03:59:44;17.00;64.80
60723;DHT22;46574;52.818;6.516;2022-09-03T04:02:10;17.00;64.90
60723;DHT22;46574;52.818;6.516;2022-09-03T04:04:35;16.90;64.90
60723;DHT22;46574;52.818;6.516;2022-09-03T04:07:01;16.90;64.90
60723;DHT22;46574;52.818;6.516;2022-09-03T04:09:27;16.90;65.00
60723;DHT22;46574;52.818;6.516;2022-09-03T04:11:52;16.90;65.10
60723;DHT22;46574;52.818;6.516;2022-09-03T04:14:18;16.80;65.20
60723;DHT22;46574;52.818;6.516;2022-09-03T04:16:43;16.80;65.30
60723;DHT22;46574;52.818;6.516;2022-09-03T04:19:12;16.80;65.30
60723;DHT22;46574;52.818;6.516;2022-09-03T04:21:38;16.80;65.90
60723;DHT22;46574;52.818;6.516;2022-09-03T04:24:04;16.70;65.90
60723;DHT22;46574;52.818;6.516;2022-09-03T04:26:31;16.70;65.90
60723;DHT22;46574;52.818;6.516;2022-09-03T04:29:04;16.70;66.10
60723;DHT22;46574;52.818;6.516;2022-09-03T04:31:30;16.60;66.30
60723;DHT22;46574;52.818;6.516;2022-09-03T04:33:56;16.60;66.60
60723;DHT22;46574;52.818;6.516;2022-09-03T04:36:24;16.60;67.40
60723;DHT22;46574;52.818;6.516;2022-09-03T04:38:52;16.50;68.40
60723;DHT22;46574;52.818;6.516;2022-09-03T04:41:23;16.50;68.40
60723;DHT22;46574;52.818;6.516;2022-09-03T04:43:51;16.40;68.80
60723;DHT22;46574;52.818;6.516;2022-09-03T04:46:17;16.40;69.10
60723;DHT22;46574;52.818;6.516;2022-09-03T04:48:47;16.30;69.60
60723;DHT22;46574;52.818;6.516;2022-09-03T04:51:16;16.30;70.20
60723;DHT22;46574;52.818;6.516;2022-09-03T04:53:44;16.20;70.70
60723;DHT22;46574;52.818;6.516;2022-09-03T04:58:40;16.10;71.80
60723;DHT22;46574;52.818;6.516;2022-09-03T05:01:09;16.10;72.70
60723;DHT22;46574;52.818;6.516;2022-09-03T05:03:35;16.10;73.20
60723;DHT22;46574;52.818;6.516;2022-09-03T05:06:02;16.00;74.00
60723;DHT22;46574;52.818;6.516;2022-09-03T05:08:29;16.00;74.60
60723;DHT22;46574;52.818;6.516;2022-09-03T05:10:59;16.00;75.60
60723;DHT22;46574;52.818;6.516;2022-09-03T05:13:25;16.00;76.10
60723;DHT22;46574;52.818;6.516;2022-09-03T05:15:51;15.90;76.90
60723;DHT22;46574;52.818;6.516;2022-09-03T05:18:16;15.90;77.30
60723;DHT22;46574;52.818;6.516;2022-09-03T05:20:42;15.90;78.40
60723;DHT22;46574;52.818;6.516;2022-09-03T05:23:08;15.90;79.60
60723;DHT22;46574;52.818;6.516;2022-09-03T05:25:34;15.90;80.80
60723;DHT22;46574;52.818;6.516;2022-09-03T05:28:03;15.90;82.00
60723;DHT22;46574;52.818;6.516;2022-09-03T05:30:29;15.80;82.60
60723;DHT22;46574;52.818;6.516;2022-09-03T05:32:55;15.80;83.80
60723;DHT22;46574;52.818;6.516;2022-09-03T05:35:21;15.80;84.80
60723;DHT22;46574;52.818;6.516;2022-09-03T05:37:47;15.70;85.60
60723;DHT22;46574;52.818;6.516;2022-09-03T05:40:13;15.70;86.50
60723;DHT22;46574;52.818;6.516;2022-09-03T05:42:39;15.70;88.00
60723;DHT22;46574;52.818;6.516;2022-09-03T05:45:08;15.70;90.10
60723;DHT22;46574;52.818;6.516;2022-09-03T05:47:36;15.70;90.40
60723;DHT22;46574;52.818;6.516;2022-09-03T05:50:04;15.70;91.10
60723;DHT22;46574;52.818;6.516;2022-09-03T05:52:30;15.70;91.00
60723;DHT22;46574;52.818;6.516;2022-09-03T05:54:56;15.70;91.40
60723;DHT22;46574;52.818;6.516;2022-09-03T05:57:21;15.70;91.80
60723;DHT22;46574;52.818;6.516;2022-09-03T05:59:47;15.70;91.90
60723;DHT22;46574;52.818;6.516;2022-09-03T06:02:13;15.80;92.10
60723;DHT22;46574;52.818;6.516;2022-09-03T06:04:38;15.80;92.30
60723;DHT22;46574;52.818;6.516;2022-09-03T06:07:04;15.80;92.70
60723;DHT22;46574;52.818;6.516;2022-09-03T06:09:29;15.90;92.90
60723;DHT22;46574;52.818;6.516;2022-09-03T06:11:55;15.90;92.40
60723;DHT22;46574;52.818;6.516;2022-09-03T06:14:21;16.00;92.30
60723;DHT22;46574;52.818;6.516;2022-09-03T06:16:47;16.10;92.00
60723;DHT22;46574;52.818;6.516;2022-09-03T06:19:14;16.10;91.70
60723;DHT22;46574;52.818;6.516;2022-09-03T06:21:42;16.20;91.60
60723;DHT22;46574;52.818;6.516;2022-09-03T06:24:10;16.30;91.40
60723;DHT22;46574;52.818;6.516;2022-09-03T06:26:36;16.30;91.10
60723;DHT22;46574;52.818;6.516;2022-09-03T06:29:03;16.30;91.00
60723;DHT22;46574;52.818;6.516;2022-09-03T06:31:28;16.40;91.30
60723;DHT22;46574;52.818;6.516;2022-09-03T06:33:54;16.40;91.40
60723;DHT22;46574;52.818;6.516;2022-09-03T06:36:22;16.50;91.20
60723;DHT22;46574;52.818;6.516;2022-09-03T06:38:54;16.50;91.30
60723;DHT22;46574;52.818;6.516;2022-09-03T06:41:22;16.50;90.70
60723;DHT22;46574;52.818;6.516;2022-09-03T06:43:54;16.50;90.70
60723;DHT22;46574;52.818;6.516;2022-09-03T06:46:22;16.50;91.00
60723;DHT22;46574;52.818;6.516;2022-09-03T06:48:48;16.60;91.00
60723;DHT22;46574;52.818;6.516;2022-09-03T06:51:20;16.60;91.00
60723;DHT22;46574;52.818;6.516;2022-09-03T06:53:49;16.70;90.50
60723;DHT22;46574;52.818;6.516;2022-09-03T06:56:17;16.70;90.30
60723;DHT22;46574;52.818;6.516;2022-09-03T06:58:45;16.70;89.90
60723;DHT22;46574;52.818;6.516;2022-09-03T07:03:38;16.80;87.90
60723;DHT22;46574;52.818;6.516;2022-09-03T07:06:13;16.90;87.20
60723;DHT22;46574;52.818;6.516;2022-09-03T07:08:39;17.00;85.70
60723;DHT22;46574;52.818;6.516;2022-09-03T07:11:10;17.10;85.80
60723;DHT22;46574;52.818;6.516;2022-09-03T07:13:37;17.10;84.70
60723;DHT22;46574;52.818;6.516;2022-09-03T07:16:07;17.20;83.10
60723;DHT22;46574;52.818;6.516;2022-09-03T07:18:33;17.30;82.60
60723;DHT22;46574;52.818;6.516;2022-09-03T07:21:06;17.30;81.90
60723;DHT22;46574;52.818;6.516;2022-09-03T07:23:33;17.40;81.20
60723;DHT22;46574;52.818;6.516;2022-09-03T07:26:02;17.40;81.90
60723;DHT22;46574;52.818;6.516;2022-09-03T07:28:28;17.50;81.10
60723;DHT22;46574;52.818;6.516;2022-09-03T07:31:04;17.60;80.70
60723;DHT22;46574;52.818;6.516;2022-09-03T07:33:31;17.60;78.60
60723;DHT22;46574;52.818;6.516;2022-09-03T07:36:07;17.70;77.30
60723;DHT22;46574;52.818;6.516;2022-09-03T07:38:34;17.80;77.00
60723;DHT22;46574;52.818;6.516;2022-09-03T07:41:03;17.90;77.20
60723;DHT22;46574;52.818;6.516;2022-09-03T07:43:36;17.90;76.70
60723;DHT22;46574;52.818;6.516;2022-09-03T07:46:05;18.00;76.60
60723;DHT22;46574;52.818;6.516;2022-09-03T07:48:31;18.10;75.10
60723;DHT22;46574;52.818;6.516;2022-09-03T07:50:58;18.20;74.00
60723;DHT22;46574;52.818;6.516;2022-09-03T07:53:27;18.20;72.60
60723;DHT22;46574;52.818;6.516;2022-09-03T07:56:03;18.30;72.20
60723;DHT22;46574;52.818;6.516;2022-09-03T07:58:30;18.30;71.50
60723;DHT22;46574;52.818;6.516;2022-09-03T08:00:57;18.40;71.10
60723;DHT22;46574;52.818;6.516;2022-09-03T08:03:22;18.40;70.70
60723;DHT22;46574;52.818;6.516;2022-09-03T08:05:48;18.50;70.40
60723;DHT22;46574;52.818;6.516;2022-09-03T08:08:14;18.60;69.70
60723;DHT22;46574;52.818;6.516;2022-09-03T08:10:40;18.70;69.70
60723;DHT22;46574;52.818;6.516;2022-09-03T08:13:06;18.70;69.10
60723;DHT22;46574;52.818;6.516;2022-09-03T08:15:32;18.80;67.90
60723;DHT22;46574;52.818;6.516;2022-09-03T08:17:59;18.80;67.50
60723;DHT22;46574;52.818;6.516;2022-09-03T08:20:25;18.90;67.70
60723;DHT22;46574;52.818;6.516;2022-09-03T08:22:51;18.90;67.80
60723;DHT22;46574;52.818;6.516;2022-09-03T08:25:19;19.00;67.80
60723;DHT22;46574;52.818;6.516;2022-09-03T08:27:45;19.10;67.00
60723;DHT22;46574;52.818;6.516;2022-09-03T08:30:11;19.20;66.90
60723;DHT22;46574;52.818;6.516;2022-09-03T08:32:37;19.20;66.50
60723;DHT22;46574;52.818;6.516;2022-09-03T08:35:05;19.30;66.50
60723;DHT22;46574;52.818;6.516;2022-09-03T08:37:31;19.50;66.80
60723;DHT22;46574;52.818;6.516;2022-09-03T08:39:57;19.60;66.10
60723;DHT22;46574;52.818;6.516;2022-09-03T08:42:40;19.70;65.40
60723;DHT22;46574;52.818;6.516;2022-09-03T08:45:12;19.80;65.10
60723;DHT22;46574;52.818;6.516;2022-09-03T08:48:04;19.90;64.70
60723;DHT22;46574;52.818;6.516;2022-09-03T08:50:33;20.00;64.90
60723;DHT22;46574;52.818;6.516;2022-09-03T08:55:55;20.20;63.00
60723;DHT22;46574;52.818;6.516;2022-09-03T08:58:26;20.30;62.50
60723;DHT22;46574;52.818;6.516;2022-09-03T09:01:06;20.40;62.10
60723;DHT22;46574;52.818;6.516;2022-09-03T09:09:45;21.00;60.90
60723;DHT22;46574;52.818;6.516;2022-09-03T09:12:28;21.10;60.20
60723;DHT22;46574;52.818;6.516;2022-09-03T09:15:27;21.30;59.40
60723;DHT22;46574;52.818;6.516;2022-09-03T09:21:10;21.80;58.00
60723;DHT22;46574;52.818;6.516;2022-09-03T09:23:47;21.90;56.10
60723;DHT22;46574;52.818;6.516;2022-09-03T09:26:18;22.00;56.40
60723;DHT22;46574;52.818;6.516;2022-09-03T09:28:48;22.20;56.40
60723;DHT22;46574;52.818;6.516;2022-09-03T09:31:15;22.30;56.00
60723;DHT22;46574;52.818;6.516;2022-09-03T09:33:43;22.50;55.60
60723;DHT22;46574;52.818;6.516;2022-09-03T09:36:11;22.70;55.50
60723;DHT22;46574;52.818;6.516;2022-09-03T09:38:40;22.80;55.90
60723;DHT22;46574;52.818;6.516;2022-09-03T09:41:14;22.90;55.70
60723;DHT22;46574;52.818;6.516;2022-09-03T09:43:41;23.00;54.50
60723;DHT22;46574;52.818;6.516;2022-09-03T09:46:21;23.10;54.40
60723;DHT22;46574;52.818;6.516;2022-09-03T09:48:52;23.20;53.10
60723;DHT22;46574;52.818;6.516;2022-09-03T09:51:25;23.30;53.40
60723;DHT22;46574;52.818;6.516;2022-09-03T09:56:33;23.70;53.40
60723;DHT22;46574;52.818;6.516;2022-09-03T09:59:07;23.80;53.00
60723;DHT22;46574;52.818;6.516;2022-09-03T10:01:39;23.90;52.00
60723;DHT22;46574;52.818;6.516;2022-09-03T10:04:28;23.90;52.50
60723;DHT22;46574;52.818;6.516;2022-09-03T10:06:58;23.90;52.10
60723;DHT22;46574;52.818;6.516;2022-09-03T10:09:27;24.10;51.40
60723;DHT22;46574;52.818;6.516;2022-09-03T10:14:33;24.20;50.70
60723;DHT22;46574;52.818;6.516;2022-09-03T10:17:08;24.40;50.00
60723;DHT22;46574;52.818;6.516;2022-09-03T10:25:39;24.70;49.10
60723;DHT22;46574;52.818;6.516;2022-09-03T10:28:08;24.70;48.50
60723;DHT22;46574;52.818;6.516;2022-09-03T10:33:39;24.80;47.90
60723;DHT22;46574;52.818;6.516;2022-09-03T10:36:20;24.80;48.20
60723;DHT22;46574;52.818;6.516;2022-09-03T10:38:53;24.90;47.90
60723;DHT22;46574;52.818;6.516;2022-09-03T10:41:53;25.00;48.00
60723;DHT22;46574;52.818;6.516;2022-09-03T10:47:21;25.00;47.20
60723;DHT22;46574;52.818;6.516;2022-09-03T10:50:08;25.00;47.40
60723;DHT22;46574;52.818;6.516;2022-09-03T10:55:46;24.90;47.40
60723;DHT22;46574;52.818;6.516;2022-09-03T10:58:33;24.90;47.20
60723;DHT22;46574;52.818;6.516;2022-09-03T11:01:22;24.80;47.30
60723;DHT22;46574;52.818;6.516;2022-09-03T11:04:21;24.80;47.10
60723;DHT22;46574;52.818;6.516;2022-09-03T11:06:54;24.80;47.30
60723;DHT22;46574;52.818;6.516;2022-09-03T11:09:26;24.80;47.20
60723;DHT22;46574;52.818;6.516;2022-09-03T11:12:02;24.80;47.00
60723;DHT22;46574;52.818;6.516;2022-09-03T11:14:34;24.80;46.20
60723;DHT22;46574;52.818;6.516;2022-09-03T11:17:13;24.70;46.20
60723;DHT22;46574;52.818;6.516;2022-09-03T11:19:47;24.70;46.50
60723;DHT22;46574;52.818;6.516;2022-09-03T11:22:16;24.70;47.30
60723;DHT22;46574;52.818;6.516;2022-09-03T11:24:45;24.70;45.70
60723;DHT22;46574;52.818;6.516;2022-09-03T11:29:55;24.70;46.10
60723;DHT22;46574;52.818;6.516;2022-09-03T11:32:32;24.70;46.10
60723;DHT22;46574;52.818;6.516;2022-09-03T11:34:59;24.70;46.30
60723;DHT22;46574;52.818;6.516;2022-09-03T11:37:26;24.70;45.50
60723;DHT22;46574;52.818;6.516;2022-09-03T11:40:09;24.70;46.00
60723;DHT22;46574;52.818;6.516;2022-09-03T11:42:41;24.70;46.00
60723;DHT22;46574;52.818;6.516;2022-09-03T11:45:23;24.70;45.40
60723;DHT22;46574;52.818;6.516;2022-09-03T11:47:59;24.70;46.00
60723;DHT22;46574;52.818;6.516;2022-09-03T11:50:27;24.70;46.20
60723;DHT22;46574;52.818;6.516;2022-09-03T11:56:11;24.90;45.30
60723;DHT22;46574;52.818;6.516;2022-09-03T11:58:39;24.90;44.10
60723;DHT22;46574;52.818;6.516;2022-09-03T12:01:13;24.90;45.40
60723;DHT22;46574;52.818;6.516;2022-09-03T12:03:58;24.90;45.50
60723;DHT22;46574;52.818;6.516;2022-09-03T12:07:05;24.90;44.80
60723;DHT22;46574;52.818;6.516;2022-09-03T12:09:50;25.00;44.80
60723;DHT22;46574;52.818;6.516;2022-09-03T12:18:14;25.00;45.20
60723;DHT22;46574;52.818;6.516;2022-09-03T12:20:45;25.00;44.70
60723;DHT22;46574;52.818;6.516;2022-09-03T12:23:13;25.00;44.40
60723;DHT22;46574;52.818;6.516;2022-09-03T12:25:51;25.00;44.30
60723;DHT22;46574;52.818;6.516;2022-09-03T12:28:20;25.10;44.00
60723;DHT22;46574;52.818;6.516;2022-09-03T12:30:49;25.10;43.90
60723;DHT22;46574;52.818;6.516;2022-09-03T12:33:19;25.10;43.80
60723;DHT22;46574;52.818;6.516;2022-09-03T12:35:56;25.00;44.20
60723;DHT22;46574;52.818;6.516;2022-09-03T12:38:28;25.10;43.90
60723;DHT22;46574;52.818;6.516;2022-09-03T12:40:56;25.10;44.20
60723;DHT22;46574;52.818;6.516;2022-09-03T12:43:27;25.10;43.70
60723;DHT22;46574;52.818;6.516;2022-09-03T12:45:55;25.10;43.60
60723;DHT22;46574;52.818;6.516;2022-09-03T12:48:21;25.10;44.10
60723;DHT22;46574;52.818;6.516;2022-09-03T12:50:48;25.10;43.10
60723;DHT22;46574;52.818;6.516;2022-09-03T12:53:25;25.10;43.80
60723;DHT22;46574;52.818;6.516;2022-09-03T12:55:56;25.10;43.80
60723;DHT22;46574;52.818;6.516;2022-09-03T12:58:32;25.20;43.40
60723;DHT22;46574;52.818;6.516;2022-09-03T13:01:10;25.10;43.60
60723;DHT22;46574;52.818;6.516;2022-09-03T13:03:45;25.20;43.20
60723;DHT22;46574;52.818;6.516;2022-09-03T13:06:16;25.20;43.40
60723;DHT22;46574;52.818;6.516;2022-09-03T13:08:50;25.20;43.40
60723;DHT22;46574;52.818;6.516;2022-09-03T13:11:19;25.10;43.80
60723;DHT22;46574;52.818;6.516;2022-09-03T13:14:00;25.10;43.80
60723;DHT22;46574;52.818;6.516;2022-09-03T13:20:23;25.20;42.40
60723;DHT22;46574;52.818;6.516;2022-09-03T13:30:27;25.20;43.60
60723;DHT22;46574;52.818;6.516;2022-09-03T13:35:46;25.30;44.10
60723;DHT22;46574;52.818;6.516;2022-09-03T13:40:53;25.30;43.30
60723;DHT22;46574;52.818;6.516;2022-09-03T13:46:10;25.30;43.50
60723;DHT22;46574;52.818;6.516;2022-09-03T13:48:42;25.30;42.70
60723;DHT22;46574;52.818;6.516;2022-09-03T13:51:37;25.40;43.30
60723;DHT22;46574;52.818;6.516;2022-09-03T13:54:22;25.30;43.10
60723;DHT22;46574;52.818;6.516;2022-09-03T13:59:39;25.30;43.30
60723;DHT22;46574;52.818;6.516;2022-09-03T14:08:17;25.30;43.50
60723;DHT22;46574;52.818;6.516;2022-09-03T14:10:53;25.40;43.40
60723;DHT22;46574;52.818;6.516;2022-09-03T14:13:31;25.40;43.70
60723;DHT22;46574;52.818;6.516;2022-09-03T14:22:04;25.40;43.80
60723;DHT22;46574;52.818;6.516;2022-09-03T14:24:43;25.40;43.60
60723;DHT22;46574;52.818;6.516;2022-09-03T14:27:10;25.30;43.40
60723;DHT22;46574;52.818;6.516;2022-09-03T14:29:36;25.30;43.80
60723;DHT22;46574;52.818;6.516;2022-09-03T14:32:26;25.30;44.00
60723;DHT22;46574;52.818;6.516;2022-09-03T14:40:25;25.40;44.00
60723;DHT22;46574;52.818;6.516;2022-09-03T14:45:42;25.50;43.80
60723;DHT22;46574;52.818;6.516;2022-09-03T14:52:01;25.50;43.60
60723;DHT22;46574;52.818;6.516;2022-09-03T14:54:55;25.60;43.70
60723;DHT22;46574;52.818;6.516;2022-09-03T15:03:03;25.50;44.40
60723;DHT22;46574;52.818;6.516;2022-09-03T15:11:16;25.50;43.90
60723;DHT22;46574;52.818;6.516;2022-09-03T15:14:08;25.50;43.70
60723;DHT22;46574;52.818;6.516;2022-09-03T15:28:58;25.30;43.90
60723;DHT22;46574;52.818;6.516;2022-09-03T15:34:30;25.30;44.30
60723;DHT22;46574;52.818;6.516;2022-09-03T15:36:59;25.30;44.10
60723;DHT22;46574;52.818;6.516;2022-09-03T15:39:34;25.40;44.30
60723;DHT22;46574;52.818;6.516;2022-09-03T15:42:07;25.40;44.80
60723;DHT22;46574;52.818;6.516;2022-09-03T15:44:55;25.50;44.20
60723;DHT22;46574;52.818;6.516;2022-09-03T15:50:28;25.60;43.30
60723;DHT22;46574;52.818;6.516;2022-09-03T15:53:01;25.60;43.40
60723;DHT22;46574;52.818;6.516;2022-09-03T15:55:41;25.60;43.90
60723;DHT22;46574;52.818;6.516;2022-09-03T15:58:29;25.60;43.60
60723;DHT22;46574;52.818;6.516;2022-09-03T16:01:05;25.60;43.80
60723;DHT22;46574;52.818;6.516;2022-09-03T16:04:01;25.50;44.60
60723;DHT22;46574;52.818;6.516;2022-09-03T16:06:48;25.50;44.90
60723;DHT22;46574;52.818;6.516;2022-09-03T16:12:28;25.50;45.10
60723;DHT22;46574;52.818;6.516;2022-09-03T16:15:02;25.50;44.60
60723;DHT22;46574;52.818;6.516;2022-09-03T16:20:26;25.60;45.50
60723;DHT22;46574;52.818;6.516;2022-09-03T16:25:34;25.60;45.40
60723;DHT22;46574;52.818;6.516;2022-09-03T16:41:41;25.90;44.40
60723;DHT22;46574;52.818;6.516;2022-09-03T16:44:30;26.00;44.40
60723;DHT22;46574;52.818;6.516;2022-09-03T16:47:22;26.20;44.20
60723;DHT22;46574;52.818;6.516;2022-09-03T16:55:56;26.20;45.00
60723;DHT22;46574;52.818;6.516;2022-09-03T17:01:09;25.90;44.90
60723;DHT22;46574;52.818;6.516;2022-09-03T17:03:54;25.70;45.10
60723;DHT22;46574;52.818;6.516;2022-09-03T17:20:04;24.90;47.60
60723;DHT22;46574;52.818;6.516;2022-09-03T17:25:35;24.60;47.60
60723;DHT22;46574;52.818;6.516;2022-09-03T17:28:12;24.50;47.50
60723;DHT22;46574;52.818;6.516;2022-09-03T17:30:56;24.40;47.70
60723;DHT22;46574;52.818;6.516;2022-09-03T17:33:48;24.30;47.90
60723;DHT22;46574;52.818;6.516;2022-09-03T17:36:24;24.20;48.60
60723;DHT22;46574;52.818;6.516;2022-09-03T17:39:20;24.10;48.90
60723;DHT22;46574;52.818;6.516;2022-09-03T17:41:54;24.00;49.40
60723;DHT22;46574;52.818;6.516;2022-09-03T17:49:47;23.70;49.80
60723;DHT22;46574;52.818;6.516;2022-09-03T17:57:46;23.20;51.40
60723;DHT22;46574;52.818;6.516;2022-09-03T18:00:33;23.00;51.90
60723;DHT22;46574;52.818;6.516;2022-09-03T18:09:19;22.50;53.60
60723;DHT22;46574;52.818;6.516;2022-09-03T18:11:48;22.40;53.40
60723;DHT22;46574;52.818;6.516;2022-09-03T18:14:30;22.20;53.60
60723;DHT22;46574;52.818;6.516;2022-09-03T18:17:34;22.10;54.00
60723;DHT22;46574;52.818;6.516;2022-09-03T18:20:08;22.00;54.80
60723;DHT22;46574;52.818;6.516;2022-09-03T18:23:00;21.80;54.70
60723;DHT22;46574;52.818;6.516;2022-09-03T18:25:49;21.70;55.30
60723;DHT22;46574;52.818;6.516;2022-09-03T18:31:53;21.50;56.20
60723;DHT22;46574;52.818;6.516;2022-09-03T18:34:37;21.40;56.50
60723;DHT22;46574;52.818;6.516;2022-09-03T18:37:23;21.30;56.90
60723;DHT22;46574;52.818;6.516;2022-09-03T18:40:10;21.10;57.20
60723;DHT22;46574;52.818;6.516;2022-09-03T18:43:23;21.10;57.70
60723;DHT22;46574;52.818;6.516;2022-09-03T18:46:23;21.00;58.00
60723;DHT22;46574;52.818;6.516;2022-09-03T18:49:28;20.90;58.20
60723;DHT22;46574;52.818;6.516;2022-09-03T18:52:30;20.80;58.50
60723;DHT22;46574;52.818;6.516;2022-09-03T18:55:44;20.80;58.70
60723;DHT22;46574;52.818;6.516;2022-09-03T18:58:49;20.70;59.30
60723;DHT22;46574;52.818;6.516;2022-09-03T19:01:37;20.50;59.70
60723;DHT22;46574;52.818;6.516;2022-09-03T19:08:20;20.40;60.30
60723;DHT22;46574;52.818;6.516;2022-09-03T19:10:53;20.40;60.90
60723;DHT22;46574;52.818;6.516;2022-09-03T19:13:39;20.40;61.50
60723;DHT22;46574;52.818;6.516;2022-09-03T19:16:47;20.30;61.70
60723;DHT22;46574;52.818;6.516;2022-09-03T19:20:13;20.30;62.40
60723;DHT22;46574;52.818;6.516;2022-09-03T19:23:02;20.20;62.90
60723;DHT22;46574;52.818;6.516;2022-09-03T19:25:46;20.10;63.30
60723;DHT22;46574;52.818;6.516;2022-09-03T19:28:32;20.10;64.20
60723;DHT22;46574;52.818;6.516;2022-09-03T19:31:35;20.10;64.60
60723;DHT22;46574;52.818;6.516;2022-09-03T19:49:18;19.90;65.60
60723;DHT22;46574;52.818;6.516;2022-09-03T19:52:34;19.90;65.70
60723;DHT22;46574;52.818;6.516;2022-09-03T19:55:25;19.90;66.10
60723;DHT22;46574;52.818;6.516;2022-09-03T19:58:12;19.80;66.40
60723;DHT22;46574;52.818;6.516;2022-09-03T20:01:00;19.80;66.90
60723;DHT22;46574;52.818;6.516;2022-09-03T20:03:44;19.70;67.00
60723;DHT22;46574;52.818;6.516;2022-09-03T20:06:30;19.60;67.30
60723;DHT22;46574;52.818;6.516;2022-09-03T20:09:28;19.60;67.60